createdAt,value
2018-08-25T00:00:29.584Z,1.00
2018-08-25T00:01:02.612Z,1.27
2018-08-25T00:01:35.636Z,1.50
2018-08-25T00:02:08.659Z,1.10
2018-08-25T00:02:42.467Z,1.25
2018-08-25T00:03:16.280Z,1.20
2018-08-25T00:03:49.299Z,0.90
2018-08-25T00:04:22.329Z,1.10
2018-08-25T00:04:55.367Z,0.90
2018-08-25T00:05:29.212Z,1.00
2018-08-25T00:06:02.232Z,1.23
2018-08-25T00:06:35.280Z,1.17
2018-08-25T00:07:08.318Z,1.12
2018-08-25T00:07:41.348Z,1.05
2018-08-25T00:08:14.390Z,1.10
2018-08-25T00:08:47.405Z,1.10
2018-08-25T00:09:20.451Z,0.90
2018-08-25T00:09:53.507Z,0.95
2018-08-25T00:10:26.553Z,1.10
2018-08-25T00:11:00.368Z,1.20
2018-08-25T00:11:33.388Z,1.30
2018-08-25T00:12:06.448Z,1.00
2018-08-25T00:12:39.477Z,1.17
2018-08-25T00:13:12.667Z,1.17
2018-08-25T00:13:46.460Z,1.25
2018-08-25T00:14:19.484Z,1.15
2018-08-25T00:14:52.552Z,1.67
2018-08-25T00:15:25.583Z,1.20
2018-08-25T00:15:58.629Z,0.93
2018-08-25T00:16:31.736Z,1.37
2018-08-25T00:17:04.767Z,1.27
2018-08-25T00:17:37.897Z,1.20
2018-08-25T00:18:10.932Z,1.33
2018-08-25T00:18:43.960Z,1.40
2018-08-25T00:19:17.760Z,1.27
2018-08-25T00:19:50.810Z,1.20
2018-08-25T00:20:23.989Z,1.00
2018-08-25T00:20:57.160Z,1.10
2018-08-25T00:21:30.331Z,1.37
2018-08-25T00:22:03.531Z,1.00
2018-08-25T00:22:36.548Z,1.40
2018-08-25T00:23:09.650Z,1.00
2018-08-25T00:23:42.677Z,1.37
2018-08-25T00:24:15.735Z,1.23
2018-08-25T00:24:48.782Z,1.20
2018-08-25T00:25:21.808Z,1.25
2018-08-25T00:25:54.835Z,1.37
2018-08-25T00:26:27.870Z,1.27
2018-08-25T00:27:00.901Z,1.17
2018-08-25T00:27:33.939Z,1.12
2018-08-25T00:28:06.963Z,1.25
2018-08-25T00:28:40.010Z,1.20
2018-08-25T00:29:13.032Z,1.05
2018-08-25T00:29:46.170Z,1.50
2018-08-25T00:30:19.197Z,1.30
2018-08-25T00:30:52.230Z,1.20
2018-08-25T00:31:25.253Z,1.27
2018-08-25T00:31:59.043Z,1.17
2018-08-25T00:32:32.874Z,1.60
2018-08-25T00:33:05.900Z,1.27
2018-08-25T00:33:38.920Z,1.10
2018-08-25T00:34:11.968Z,1.05
2018-08-25T00:34:45.770Z,1.27
2018-08-25T00:35:18.792Z,1.20
2018-08-25T00:35:51.827Z,1.12
2018-08-25T00:36:24.851Z,1.12
2018-08-25T00:36:57.901Z,1.20
2018-08-25T00:37:30.928Z,1.25
2018-08-25T00:38:03.951Z,0.85
2018-08-25T00:38:36.991Z,1.10
2018-08-25T00:39:10.805Z,1.08
2018-08-25T00:39:43.988Z,1.10
2018-08-25T00:40:17.017Z,1.00
2018-08-25T00:40:50.123Z,1.12
2018-08-25T00:41:23.156Z,1.50
2018-08-25T00:41:56.185Z,1.10
2018-08-25T00:42:29.211Z,1.40
2018-08-25T00:43:03.016Z,1.00
2018-08-25T00:43:36.817Z,1.05
2018-08-25T00:44:09.864Z,0.88
2018-08-25T00:44:42.893Z,1.30
2018-08-25T00:45:15.952Z,1.27
2018-08-25T00:45:48.993Z,1.25
2018-08-25T00:46:22.019Z,0.88
2018-08-25T00:46:55.040Z,1.40
2018-08-25T00:47:28.839Z,2.12
2018-08-25T00:48:02.636Z,1.30
2018-08-25T00:48:36.432Z,1.20
2018-08-25T00:49:10.264Z,1.40
2018-08-25T00:49:43.308Z,1.50
2018-08-25T00:50:16.344Z,1.30
2018-08-25T00:50:49.377Z,1.42
2018-08-25T00:51:22.417Z,1.23
2018-08-25T00:51:55.545Z,1.17
2018-08-25T00:52:28.578Z,1.30
2018-08-25T00:53:01.596Z,1.33
2018-08-25T00:53:34.642Z,1.40
2018-08-25T00:54:07.695Z,1.60
2018-08-25T00:54:41.533Z,1.37
2018-08-25T00:55:14.556Z,1.45
2018-08-25T00:55:48.364Z,1.50
2018-08-25T00:56:22.163Z,1.12
2018-08-25T00:56:55.207Z,1.45
2018-08-25T00:57:28.296Z,1.40
2018-08-25T00:58:01.260Z,1.33
2018-08-25T00:58:34.275Z,1.30
2018-08-25T00:59:07.464Z,1.23
2018-08-25T00:59:40.504Z,1.42
2018-08-25T01:00:13.532Z,1.62
2018-08-25T01:00:46.560Z,1.40
2018-08-25T01:01:19.607Z,1.62
2018-08-25T01:01:52.644Z,1.80
2018-08-25T01:02:25.671Z,1.42
2018-08-25T01:02:59.474Z,1.45
2018-08-25T01:03:33.293Z,1.20
2018-08-25T01:04:06.311Z,1.50
2018-08-25T01:04:39.357Z,1.83
2018-08-25T01:05:13.161Z,1.30
2018-08-25T01:05:46.216Z,1.55
2018-08-25T01:06:19.252Z,1.55
2018-08-25T01:06:53.078Z,1.48
2018-08-25T01:07:26.096Z,1.40
2018-08-25T01:07:59.132Z,1.98
2018-08-25T01:08:32.310Z,1.48
2018-08-25T01:09:05.336Z,1.33
2018-08-25T01:09:39.148Z,1.08
2018-08-25T01:10:12.173Z,1.40
2018-08-25T01:10:45.209Z,1.55
2018-08-25T01:11:18.254Z,1.30
2018-08-25T01:11:51.279Z,1.33
2018-08-25T01:12:24.319Z,1.30
2018-08-25T01:12:57.340Z,1.12
2018-08-25T01:13:30.381Z,1.05
2018-08-25T01:14:03.416Z,1.30
2018-08-25T01:14:37.256Z,1.40
2018-08-25T01:15:10.281Z,1.02
2018-08-25T01:15:43.349Z,1.20
2018-08-25T01:16:16.335Z,1.30
2018-08-25T01:16:50.139Z,1.20
2018-08-25T01:17:23.927Z,1.27
2018-08-25T01:17:57.735Z,1.42
2018-08-25T01:18:30.775Z,1.00
2018-08-25T01:19:03.811Z,1.45
2018-08-25T01:19:36.858Z,1.42
2018-08-25T01:20:09.911Z,1.27
2018-08-25T01:20:42.928Z,1.43
2018-08-25T01:21:15.964Z,1.40
2018-08-25T01:26:43.857Z,1.40
2018-08-25T01:29:28.768Z,1.20
2018-08-25T01:30:34.320Z,1.20
2018-08-25T02:23:50.423Z,1.30
2018-08-25T02:38:02.692Z,1.70
2018-08-25T02:46:43.761Z,1.50
2018-08-25T02:47:16.776Z,1.65
2018-08-25T02:47:49.804Z,2.08
2018-08-25T02:48:22.846Z,1.30
2018-08-25T03:12:19.464Z,1.25
2018-08-25T03:12:52.615Z,1.17
2018-08-25T03:29:13.763Z,1.48
2018-08-25T03:29:47.560Z,1.35
2018-08-25T03:30:21.365Z,1.12
2018-08-25T03:30:55.165Z,1.60
2018-08-25T03:31:28.197Z,1.50
2018-08-25T03:32:01.247Z,1.50
2018-08-25T03:39:06.682Z,1.73
2018-08-25T03:39:40.464Z,1.55
2018-08-25T03:55:29.682Z,1.85
2018-08-25T04:13:27.655Z,1.58
2018-08-25T04:14:00.696Z,1.55
2018-08-25T04:14:33.736Z,1.83
2018-08-25T04:15:07.535Z,1.83
2018-08-25T04:15:41.324Z,1.75
2018-08-25T04:16:15.119Z,2.20
2018-08-25T04:16:48.916Z,1.80
2018-08-25T04:17:22.715Z,2.75
2018-08-25T04:17:55.758Z,1.87
2018-08-25T04:18:28.792Z,1.90
2018-08-25T04:19:01.816Z,1.58
2018-08-25T04:19:35.688Z,1.90
2018-08-25T04:20:08.735Z,1.75
2018-08-25T04:20:41.761Z,1.70
2018-08-25T04:21:14.777Z,2.10
2018-08-25T04:21:47.812Z,1.83
2018-08-25T04:22:21.816Z,1.50
2018-08-25T04:22:54.884Z,1.70
2018-08-25T04:23:28.676Z,1.73
2018-08-25T04:24:02.489Z,1.62
2018-08-25T04:24:35.513Z,1.85
2018-08-25T04:25:08.544Z,1.65
2018-08-25T04:25:41.574Z,1.67
2018-08-25T04:26:14.605Z,1.80
2018-08-25T04:26:47.785Z,1.48
2018-08-25T04:27:20.808Z,1.98
2018-08-25T04:27:53.931Z,1.62
2018-08-25T04:28:27.733Z,2.10
2018-08-25T04:29:00.744Z,1.92
2018-08-25T04:29:33.784Z,1.87
2018-08-25T04:30:06.812Z,1.87
2018-08-25T04:30:40.609Z,1.62
2018-08-25T04:31:14.391Z,1.42
2018-08-25T04:31:48.176Z,1.42
2018-08-25T04:32:21.200Z,1.77
2018-08-25T04:32:54.223Z,1.87
2018-08-25T04:33:27.378Z,2.05
2018-08-25T04:34:00.375Z,1.83
2018-08-25T04:34:33.407Z,1.73
2018-08-25T04:35:06.443Z,1.48
2018-08-25T04:35:40.248Z,1.80
2018-08-25T04:36:13.277Z,2.10
2018-08-25T04:36:46.428Z,1.55
2018-08-25T04:37:19.588Z,1.90
2018-08-25T04:37:52.618Z,2.10
2018-08-25T04:38:25.653Z,1.80
2018-08-25T04:38:58.681Z,1.70
2018-08-25T04:39:32.488Z,2.10
2018-08-25T04:40:06.282Z,1.73
2018-08-25T04:40:39.309Z,2.12
2018-08-25T04:41:12.479Z,1.62
2018-08-25T04:41:45.487Z,1.85
2018-08-25T04:42:18.511Z,2.00
2018-08-25T04:42:51.544Z,1.48
2018-08-25T04:43:25.552Z,1.87
2018-08-25T04:43:59.117Z,1.67
2018-08-25T04:44:32.136Z,1.70
2018-08-25T04:45:05.167Z,1.80
2018-08-25T04:45:38.191Z,1.65
2018-08-25T04:46:11.228Z,1.73
2018-08-25T04:46:45.040Z,1.50
2018-08-25T04:47:18.067Z,1.85
2018-08-25T04:47:51.096Z,1.73
2018-08-25T04:48:24.117Z,2.12
2018-08-25T04:48:57.139Z,1.90
2018-08-25T04:49:30.324Z,1.83
2018-08-25T04:50:03.359Z,2.20
2018-08-25T04:50:36.372Z,1.98
2018-08-25T04:51:09.439Z,2.20
2018-08-25T04:51:42.488Z,1.70
2018-08-25T04:52:15.516Z,1.73
2018-08-25T04:52:48.539Z,1.87
2018-08-25T04:53:22.335Z,2.20
2018-08-25T04:53:56.145Z,1.98
2018-08-25T04:54:29.180Z,2.10
2018-08-25T04:55:02.211Z,1.80
2018-08-25T04:55:35.231Z,1.80
2018-08-25T04:56:08.255Z,2.33
2018-08-25T04:56:41.283Z,2.03
2018-08-25T04:57:15.105Z,1.90
2018-08-25T04:57:48.127Z,2.45
2018-08-25T04:58:21.156Z,1.80
2018-08-25T04:58:54.175Z,1.75
2018-08-25T04:59:27.214Z,1.50
2018-08-25T05:00:00.295Z,2.08
2018-08-25T05:00:33.315Z,1.80
2018-08-25T05:01:06.352Z,2.33
2018-08-25T05:01:39.391Z,1.85
2018-08-25T05:02:13.196Z,1.77
2018-08-25T05:02:46.984Z,1.90
2018-08-25T05:03:20.032Z,1.65
2018-08-25T05:03:53.075Z,2.53
2018-08-25T05:04:26.135Z,1.60
2018-08-25T05:04:59.212Z,1.80
2018-08-25T05:05:32.239Z,2.08
2018-08-25T05:06:06.031Z,1.98
2018-08-25T05:06:39.840Z,2.50
2018-08-25T05:07:13.070Z,2.28
2018-08-25T05:07:46.132Z,1.87
2018-08-25T05:08:19.183Z,1.70
2018-08-25T05:08:52.215Z,2.25
2018-08-25T05:09:25.274Z,1.60
2018-08-25T05:09:58.273Z,1.95
2018-08-25T05:10:31.293Z,1.87
2018-08-25T05:11:04.314Z,1.95
2018-08-25T05:11:37.337Z,2.08
2018-08-25T05:12:10.364Z,2.15
2018-08-25T05:12:43.399Z,2.00
2018-08-25T05:13:16.423Z,1.90
2018-08-25T05:13:49.544Z,2.15
2018-08-25T05:14:22.580Z,2.08
2018-08-25T05:14:55.600Z,2.08
2018-08-25T05:15:28.615Z,1.92
2018-08-25T05:16:02.403Z,2.05
2018-08-25T05:16:35.435Z,2.10
2018-08-25T05:17:08.476Z,2.15
2018-08-25T05:17:41.520Z,1.75
2018-08-25T05:18:14.563Z,2.30
2018-08-25T05:18:47.595Z,2.08
2018-08-25T05:19:20.635Z,1.92
2018-08-25T05:19:53.668Z,1.90
2018-08-25T05:20:26.707Z,1.80
2018-08-25T05:20:59.837Z,1.65
2018-08-25T05:21:32.871Z,2.10
2018-08-25T05:22:05.973Z,1.80
2018-08-25T05:22:39.723Z,2.10
2018-08-25T05:23:12.763Z,1.75
2018-08-25T05:23:45.783Z,2.28
2018-08-25T05:24:18.803Z,1.80
2018-08-25T05:24:51.835Z,2.22
2018-08-25T05:25:25.644Z,2.08
2018-08-25T05:25:58.686Z,1.80
2018-08-25T05:26:31.713Z,2.00
2018-08-25T05:27:04.748Z,1.73
2018-08-25T05:27:38.555Z,1.85
2018-08-25T05:28:11.577Z,2.20
2018-08-25T05:28:44.616Z,1.75
2018-08-25T05:29:17.635Z,1.90
2018-08-25T05:29:50.684Z,2.22
2018-08-25T05:30:23.721Z,1.75
2018-08-25T05:30:57.514Z,1.85
2018-08-25T05:31:30.556Z,2.28
2018-08-25T05:32:03.596Z,2.08
2018-08-25T05:32:36.621Z,1.77
2018-08-25T05:33:10.423Z,1.80
2018-08-25T05:33:43.542Z,1.77
2018-08-25T05:34:16.571Z,2.22
2018-08-25T05:34:49.604Z,2.20
2018-08-25T05:35:22.627Z,2.20
2018-08-25T05:35:55.664Z,1.80
2018-08-25T05:36:28.692Z,2.00
2018-08-25T05:37:01.776Z,1.67
2018-08-25T05:37:34.815Z,1.70
2018-08-25T05:38:07.851Z,1.70
2018-08-25T05:38:40.905Z,1.98
2018-08-25T05:39:13.942Z,1.98
2018-08-25T05:39:46.984Z,1.77
2018-08-25T05:40:20.004Z,1.60
2018-08-25T05:40:53.798Z,2.42
2018-08-25T05:41:26.839Z,2.28
2018-08-25T05:41:59.965Z,1.80
2018-08-25T05:42:33.024Z,1.83
2018-08-25T05:43:06.056Z,1.80
2018-08-25T05:43:39.077Z,1.60
2018-08-25T05:44:12.139Z,2.20
2018-08-25T05:44:45.144Z,1.60
2018-08-25T05:45:18.164Z,1.70
2018-08-25T05:45:51.192Z,2.28
2018-08-25T05:46:24.228Z,1.90
2018-08-25T05:46:57.375Z,1.98
2018-08-25T05:47:30.499Z,1.85
2018-08-25T05:48:04.296Z,1.85
2018-08-25T05:48:37.319Z,2.08
2018-08-25T05:49:10.362Z,1.67
2018-08-25T05:49:43.384Z,1.70
2018-08-25T05:50:16.459Z,1.83
2018-08-25T05:50:49.444Z,1.95
2018-08-25T05:51:22.475Z,1.92
2018-08-25T05:51:55.522Z,2.35
2018-08-25T05:52:29.296Z,1.60
2018-08-25T05:53:03.097Z,1.80
2018-08-25T05:53:36.111Z,1.45
2018-08-25T05:54:09.173Z,1.70
2018-08-25T05:54:42.184Z,1.75
2018-08-25T05:55:15.220Z,1.70
2018-08-25T05:55:48.255Z,2.08
2018-08-25T05:56:21.280Z,2.00
2018-08-25T05:56:55.092Z,1.80
2018-08-25T05:57:28.142Z,1.92
2018-08-25T05:58:01.180Z,2.15
2018-08-25T05:58:34.984Z,1.90
2018-08-25T05:59:08.000Z,1.87
2018-08-25T05:59:41.027Z,2.15
2018-08-25T06:00:14.069Z,2.22
2018-08-25T06:00:47.198Z,2.42
2018-08-25T06:01:20.232Z,1.85
2018-08-25T06:01:53.252Z,1.98
2018-08-25T06:02:26.304Z,2.20
2018-08-25T06:02:59.334Z,2.33
2018-08-25T06:03:32.364Z,1.80
2018-08-25T06:04:05.388Z,2.15
2018-08-25T06:04:38.428Z,2.12
2018-08-25T06:05:11.599Z,2.40
2018-08-25T06:05:44.654Z,1.67
2018-08-25T06:06:17.689Z,2.05
2018-08-25T06:06:50.711Z,1.98
2018-08-25T06:07:23.761Z,2.40
2018-08-25T06:07:56.802Z,2.33
2018-08-25T06:08:29.846Z,3.80
2018-08-25T06:09:02.881Z,3.05
2018-08-25T06:09:35.913Z,3.30
2018-08-25T06:10:09.691Z,2.92
2018-08-25T06:10:42.744Z,2.70
2018-08-25T06:11:16.523Z,2.30
2018-08-25T06:11:50.326Z,1.90
2018-08-25T06:12:23.373Z,1.77
2018-08-25T06:12:56.507Z,2.35
2018-08-25T06:13:29.564Z,2.12
2018-08-25T06:14:02.576Z,2.20
2018-08-25T06:14:35.626Z,2.28
2018-08-25T06:15:08.685Z,2.17
2018-08-25T06:15:41.787Z,1.70
2018-08-25T06:16:14.824Z,2.10
2018-08-25T06:16:47.871Z,2.47
2018-08-25T06:17:20.888Z,2.10
2018-08-25T06:17:53.918Z,2.20
2018-08-25T06:18:26.949Z,2.20
2018-08-25T06:18:59.969Z,1.77
2018-08-25T06:19:33.003Z,2.00
2018-08-25T06:20:06.811Z,2.00
2018-08-25T06:20:39.849Z,2.12
2018-08-25T06:21:12.889Z,1.90
2018-08-25T06:21:46.694Z,2.08
2018-08-25T06:22:20.494Z,2.30
2018-08-25T06:22:54.288Z,2.30
2018-08-25T06:23:27.320Z,2.62
2018-08-25T06:24:00.362Z,2.28
2018-08-25T06:24:33.469Z,2.12
2018-08-25T06:25:06.626Z,2.00
2018-08-25T06:25:39.797Z,1.80
2018-08-25T06:26:12.849Z,2.05
2018-08-25T06:26:45.888Z,1.90
2018-08-25T06:27:18.913Z,2.12
2018-08-25T06:27:51.968Z,1.90
2018-08-25T06:28:24.998Z,2.33
2018-08-25T06:28:58.032Z,1.95
2018-08-25T06:29:31.080Z,1.50
2018-08-25T06:30:04.124Z,2.10
2018-08-25T06:30:37.158Z,1.90
2018-08-25T06:31:10.182Z,2.12
2018-08-25T06:31:43.201Z,2.30
2018-08-25T06:32:16.239Z,1.80
2018-08-25T06:32:49.304Z,1.90
2018-08-25T06:33:22.351Z,1.85
2018-08-25T06:33:56.150Z,1.85
2018-08-25T06:34:29.176Z,2.35
2018-08-25T06:35:02.985Z,1.87
2018-08-25T06:35:36.009Z,1.80
2018-08-25T06:36:09.077Z,2.00
2018-08-25T06:36:42.159Z,1.90
2018-08-25T06:37:15.115Z,1.92
2018-08-25T06:37:48.160Z,1.83
2018-08-25T06:38:21.189Z,2.10
2018-08-25T06:38:54.224Z,2.00
2018-08-25T06:39:27.265Z,2.10
2018-08-25T06:40:00.294Z,2.33
2018-08-25T06:40:33.328Z,2.15
2018-08-25T06:41:06.360Z,2.10
2018-08-25T06:41:39.384Z,2.22
2018-08-25T06:42:12.417Z,1.67
2018-08-25T06:42:45.452Z,1.98
2018-08-25T06:43:18.492Z,2.08
2018-08-25T06:43:51.613Z,2.47
2018-08-25T06:44:24.624Z,1.90
2018-08-25T06:44:58.431Z,2.05
2018-08-25T06:45:31.462Z,2.10
2018-08-25T06:46:04.508Z,2.20
2018-08-25T06:46:37.520Z,1.80
2018-08-25T06:47:10.548Z,2.58
2018-08-25T06:47:43.580Z,1.95
2018-08-25T06:48:16.619Z,1.77
2018-08-25T06:48:49.652Z,2.00
2018-08-25T06:49:22.701Z,2.17
2018-08-25T06:49:55.736Z,1.98
2018-08-25T06:50:28.774Z,2.70
2018-08-25T06:51:02.556Z,2.12
2018-08-25T06:51:35.595Z,1.85
2018-08-25T06:52:08.640Z,2.20
2018-08-25T06:52:41.672Z,2.22
2018-08-25T06:53:14.774Z,2.72
2018-08-25T06:53:47.760Z,2.35
2018-08-25T06:54:20.786Z,2.12
2018-08-25T06:54:53.826Z,2.20
2018-08-25T06:55:26.827Z,2.33
2018-08-25T06:55:59.840Z,1.95
2018-08-25T06:56:32.895Z,2.45
2018-08-25T06:57:05.917Z,1.80
2018-08-25T06:57:38.939Z,1.55
2018-08-25T06:58:12.778Z,2.12
2018-08-25T06:58:45.791Z,2.30
2018-08-25T06:59:18.867Z,2.00
2018-08-25T06:59:51.877Z,1.92
2018-08-25T07:00:24.905Z,1.92
2018-08-25T07:00:57.956Z,1.87
2018-08-25T07:01:30.975Z,2.10
2018-08-25T07:02:04.781Z,1.77
2018-08-25T07:02:38.577Z,2.12
2018-08-25T07:03:12.391Z,2.00
2018-08-25T07:03:45.441Z,2.10
2018-08-25T07:04:18.459Z,2.45
2018-08-25T07:04:51.508Z,2.10
2018-08-25T07:05:24.539Z,1.95
2018-08-25T07:05:57.585Z,2.33
2018-08-25T07:06:30.607Z,2.12
2018-08-25T07:07:03.627Z,2.00
2018-08-25T07:07:36.673Z,1.90
2018-08-25T07:08:09.822Z,2.22
2018-08-25T07:08:42.869Z,2.58
2018-08-25T07:09:15.916Z,2.28
2018-08-25T07:09:48.936Z,2.25
2018-08-25T07:10:21.968Z,3.03
2018-08-25T07:10:55.011Z,2.28
2018-08-25T07:11:28.795Z,2.10
2018-08-25T07:12:01.824Z,2.15
2018-08-25T07:12:34.856Z,2.03
2018-08-25T07:13:07.875Z,2.08
2018-08-25T07:13:40.916Z,2.30
2018-08-25T07:14:13.937Z,2.60
2018-08-25T07:14:46.967Z,2.05
2018-08-25T07:15:20.000Z,2.30
2018-08-25T07:15:53.028Z,2.00
2018-08-25T07:16:26.064Z,2.37
2018-08-25T07:16:59.092Z,2.22
2018-08-25T07:17:32.124Z,2.37
2018-08-25T07:18:05.928Z,2.20
2018-08-25T07:18:38.987Z,2.55
2018-08-25T07:19:12.792Z,2.05
2018-08-25T07:19:45.889Z,2.40
2018-08-25T07:20:18.912Z,2.45
2018-08-25T07:20:51.976Z,2.22
2018-08-25T07:21:25.009Z,2.90
2018-08-25T07:21:58.024Z,2.10
2018-08-25T07:22:31.056Z,2.22
2018-08-25T07:23:04.100Z,2.53
2018-08-25T07:23:37.137Z,2.30
2018-08-25T07:24:10.182Z,2.62
2018-08-25T07:24:43.212Z,2.40
2018-08-25T07:25:16.257Z,2.40
2018-08-25T07:25:49.325Z,1.95
2018-08-25T07:26:22.436Z,2.45
2018-08-25T07:26:55.367Z,2.22
2018-08-25T07:27:28.399Z,2.50
2018-08-25T07:28:01.448Z,2.28
2018-08-25T07:28:34.493Z,2.53
2018-08-25T07:29:07.527Z,2.10
2018-08-25T07:29:41.383Z,2.28
2018-08-25T07:30:14.359Z,2.15
2018-08-25T07:30:47.376Z,2.25
2018-08-25T07:31:21.177Z,2.33
2018-08-25T07:31:55.015Z,2.42
2018-08-25T07:32:28.013Z,2.15
2018-08-25T07:33:01.061Z,2.28
2018-08-25T07:33:34.104Z,2.72
2018-08-25T07:34:07.288Z,2.28
2018-08-25T07:34:40.307Z,2.62
2018-08-25T07:35:13.447Z,2.60
2018-08-25T07:35:46.480Z,2.12
2018-08-25T07:36:19.519Z,2.30
2018-08-25T07:36:52.560Z,2.70
2018-08-25T07:37:25.568Z,2.28
2018-08-25T07:37:58.598Z,2.60
2018-08-25T07:38:31.644Z,2.58
2018-08-25T07:39:05.436Z,2.50
2018-08-25T07:39:39.243Z,2.35
2018-08-25T07:40:12.282Z,2.55
2018-08-25T07:40:45.330Z,2.40
2018-08-25T07:41:18.352Z,2.05
2018-08-25T07:41:52.157Z,2.22
2018-08-25T07:42:25.963Z,2.50
2018-08-25T07:42:59.000Z,2.50
2018-08-25T07:43:32.049Z,2.25
2018-08-25T07:44:05.081Z,2.33
2018-08-25T07:44:38.119Z,2.40
2018-08-25T07:45:11.192Z,2.37
2018-08-25T07:45:44.956Z,2.28
2018-08-25T07:46:17.981Z,2.42
2018-08-25T07:46:51.775Z,2.25
2018-08-25T07:47:25.581Z,2.33
2018-08-25T07:47:59.379Z,2.40
2018-08-25T07:48:32.494Z,2.10
2018-08-25T07:49:05.556Z,2.22
2018-08-25T07:49:39.407Z,2.30
2018-08-25T07:50:12.400Z,1.95
2018-08-25T07:50:45.425Z,2.28
2018-08-25T07:51:18.474Z,2.20
2018-08-25T07:51:51.513Z,2.42
2018-08-25T07:52:24.552Z,2.25
2018-08-25T07:52:57.591Z,2.00
2018-08-25T07:53:31.377Z,2.35
2018-08-25T07:54:04.440Z,2.00
2018-08-25T07:54:37.463Z,2.10
2018-08-25T07:55:10.522Z,2.08
2018-08-25T07:55:43.558Z,2.33
2018-08-25T07:56:16.600Z,2.15
2018-08-25T07:56:49.619Z,2.30
2018-08-25T07:57:22.652Z,2.15
2018-08-25T07:57:55.686Z,2.12
2018-08-25T07:58:29.416Z,2.10
2018-08-25T07:59:02.489Z,2.45
2018-08-25T07:59:35.457Z,2.20
2018-08-25T08:00:08.495Z,2.75
2018-08-25T08:00:41.549Z,2.78
2018-08-25T08:01:14.567Z,2.33
2018-08-25T08:01:47.613Z,2.12
2018-08-25T08:02:20.646Z,1.98
2018-08-25T08:02:54.442Z,2.55
2018-08-25T08:03:28.248Z,2.17
2018-08-25T08:04:01.296Z,2.55
2018-08-25T08:04:34.327Z,2.30
2018-08-25T08:05:07.371Z,2.65
2018-08-25T08:05:40.482Z,2.25
2018-08-25T08:06:14.200Z,2.10
2018-08-25T08:06:47.222Z,2.25
2018-08-25T08:07:20.248Z,2.22
2018-08-25T08:07:53.272Z,2.33
2018-08-25T08:08:26.305Z,2.58
2018-08-25T08:08:59.344Z,2.65
2018-08-25T08:09:32.381Z,2.87
2018-08-25T08:10:06.206Z,2.30
2018-08-25T08:10:39.235Z,2.17
2018-08-25T08:11:13.053Z,2.55
2018-08-25T08:11:46.129Z,2.22
2018-08-25T08:12:19.165Z,2.28
2018-08-25T08:12:52.166Z,2.42
2018-08-25T08:13:25.976Z,2.60
2018-08-25T08:13:59.030Z,2.30
2018-08-25T08:14:32.138Z,2.25
2018-08-25T08:15:05.166Z,2.62
2018-08-25T08:15:38.953Z,2.20
2018-08-25T08:16:11.991Z,2.28
2018-08-25T08:16:45.029Z,2.37
2018-08-25T08:17:18.068Z,1.98
2018-08-25T08:17:51.093Z,2.33
2018-08-25T08:18:24.128Z,2.20
2018-08-25T08:18:57.951Z,2.20
2018-08-25T08:19:30.990Z,2.55
2018-08-25T08:20:04.021Z,2.33
2018-08-25T08:20:37.057Z,2.30
2018-08-25T08:21:10.851Z,2.12
2018-08-25T08:21:44.640Z,2.60
2018-08-25T08:22:18.444Z,2.12
2018-08-25T08:22:51.474Z,2.55
2018-08-25T08:23:24.547Z,1.92
2018-08-25T08:23:57.568Z,1.98
2018-08-25T08:24:31.392Z,2.12
2018-08-25T08:25:04.436Z,1.90
2018-08-25T08:25:37.472Z,1.95
2018-08-25T08:26:10.521Z,2.28
2018-08-25T08:26:43.548Z,2.05
2018-08-25T08:27:16.609Z,2.33
2018-08-25T08:27:49.633Z,2.00
2018-08-25T08:28:22.665Z,2.20
2018-08-25T08:28:55.710Z,2.30
2018-08-25T08:29:28.752Z,2.17
2018-08-25T08:30:01.800Z,2.10
2018-08-25T08:30:34.844Z,2.87
2018-08-25T08:31:07.887Z,2.30
2018-08-25T08:31:40.936Z,2.10
2018-08-25T08:32:13.993Z,1.92
2018-08-25T08:32:47.801Z,2.15
2018-08-25T08:33:21.599Z,2.10
2018-08-25T08:33:54.632Z,2.12
2018-08-25T08:34:27.684Z,2.30
2018-08-25T08:35:00.725Z,2.25
2018-08-25T08:35:33.770Z,2.50
2018-08-25T08:36:07.559Z,1.77
2018-08-25T08:36:41.364Z,1.70
2018-08-25T08:37:15.157Z,2.00
2018-08-25T08:37:48.967Z,1.83
2018-08-25T08:38:22.005Z,2.10
2018-08-25T08:38:55.041Z,2.05
2018-08-25T08:39:28.145Z,2.33
2018-08-25T08:40:01.145Z,2.10
2018-08-25T08:40:34.940Z,1.80
2018-08-25T08:41:08.737Z,2.30
2018-08-25T08:41:42.568Z,1.58
2018-08-25T08:42:15.611Z,2.50
2018-08-25T08:42:48.652Z,1.83
2018-08-25T08:43:25.400Z,2.10
2018-08-25T08:43:58.392Z,1.95
2018-08-25T08:44:31.443Z,2.20
2018-08-25T08:45:04.472Z,2.20
2018-08-25T08:45:37.508Z,2.25
2018-08-25T08:46:10.545Z,2.08
2018-08-25T08:46:43.597Z,2.20
2018-08-25T08:47:17.398Z,2.03
2018-08-25T08:47:50.420Z,2.12
2018-08-25T08:48:23.456Z,2.12
2018-08-25T08:48:56.500Z,2.00
2018-08-25T08:49:30.325Z,1.55
2018-08-25T08:50:03.492Z,2.28
2018-08-25T08:50:36.464Z,2.00
2018-08-25T08:51:09.431Z,1.87
2018-08-25T08:51:43.222Z,2.12
2018-08-25T08:52:16.293Z,2.40
2018-08-25T08:52:49.309Z,2.08
2018-08-25T08:53:22.335Z,1.90
2018-08-25T08:53:56.141Z,1.90
2018-08-25T08:54:29.970Z,2.03
2018-08-25T08:55:03.021Z,2.12
2018-08-25T08:55:36.052Z,2.08
2018-08-25T08:56:09.080Z,2.00
2018-08-25T08:56:42.112Z,1.90
2018-08-25T08:57:15.147Z,2.05
2018-08-25T08:57:48.951Z,1.50
2018-08-25T08:58:22.023Z,1.80
2018-08-25T08:58:55.224Z,1.52
2018-08-25T08:59:29.053Z,1.92
2018-08-25T09:00:02.144Z,1.62
2018-08-25T09:00:35.193Z,2.08
2018-08-25T09:01:08.231Z,1.70
2018-08-25T09:01:41.284Z,2.50
2018-08-25T09:02:14.321Z,2.10
2018-08-25T09:02:47.360Z,1.92
2018-08-25T09:03:20.419Z,1.92
2018-08-25T09:03:53.413Z,2.35
2018-08-25T09:04:26.456Z,2.17
2018-08-25T09:04:59.493Z,1.98
2018-08-25T09:05:32.536Z,1.90
2018-08-25T09:06:05.572Z,2.10
2018-08-25T09:06:38.607Z,1.60
2018-08-25T09:07:12.413Z,1.45
2018-08-25T09:07:45.448Z,1.30
2018-08-25T09:08:18.488Z,1.95
2018-08-25T09:08:51.544Z,1.95
2018-08-25T09:09:24.576Z,1.65
2018-08-25T09:09:57.615Z,1.65
2018-08-25T09:10:30.652Z,1.30
2018-08-25T09:11:03.706Z,1.73
2018-08-25T09:11:36.732Z,1.67
2018-08-25T09:12:10.016Z,1.45
2018-08-25T09:12:43.046Z,1.77
2018-08-25T09:13:16.174Z,1.52
2018-08-25T09:13:49.213Z,1.55
2018-08-25T09:14:22.236Z,1.42
2018-08-25T09:14:55.285Z,1.55
2018-08-25T09:15:57.626Z,1.42
2018-08-25T09:16:31.487Z,1.73
2018-08-25T09:17:04.901Z,1.70
2018-08-25T09:17:37.928Z,1.27
2018-08-25T09:18:11.041Z,1.98
2018-08-25T09:18:44.015Z,1.52
2018-08-25T09:19:17.062Z,1.48
2018-08-25T09:19:50.124Z,1.40
2018-08-25T09:20:23.156Z,1.40
2018-08-25T09:20:56.208Z,1.20
2018-08-25T09:21:29.247Z,2.00
2018-08-25T09:22:02.280Z,1.45
2018-08-25T09:22:35.480Z,1.30
2018-08-25T09:23:08.521Z,1.48
2018-08-25T09:23:42.324Z,1.45
2018-08-25T09:24:15.348Z,1.50
2018-08-25T09:24:48.394Z,1.70
2018-08-25T09:25:21.448Z,1.30
2018-08-25T09:25:54.470Z,0.95
2018-08-25T09:26:27.521Z,1.42
2018-08-25T09:27:00.569Z,1.30
2018-08-25T09:27:33.734Z,1.65
2018-08-25T09:28:06.647Z,0.95
2018-08-25T09:28:39.686Z,1.60
2018-08-25T09:29:12.716Z,0.98
2018-08-25T09:29:45.764Z,1.27
2018-08-25T09:30:18.792Z,1.20
2018-08-25T09:30:51.824Z,1.42
2018-08-25T09:31:25.655Z,1.10
2018-08-25T09:31:59.457Z,1.37
2018-08-25T09:32:33.252Z,0.77
2018-08-25T09:33:07.048Z,0.80
2018-08-25T09:33:40.084Z,0.90
2018-08-25T09:34:13.149Z,1.02
2018-08-25T09:34:46.207Z,0.80
2018-08-25T09:35:19.260Z,0.80
2018-08-25T09:35:52.440Z,0.65
2018-08-25T09:36:25.441Z,1.20
2018-08-25T09:36:59.427Z,0.88
2018-08-25T09:37:33.080Z,1.17
2018-08-25T09:38:06.891Z,0.77
2018-08-25T09:38:39.953Z,0.90
2018-08-25T09:39:12.972Z,1.00
2018-08-25T09:39:46.016Z,0.70
2018-08-25T09:40:19.211Z,0.90
2018-08-25T09:40:52.240Z,0.98
2018-08-25T09:41:25.347Z,0.75
2018-08-25T09:41:58.390Z,0.65
2018-08-25T09:42:32.191Z,0.70
2018-08-25T09:43:05.216Z,0.60
2018-08-25T09:43:39.016Z,0.70
2018-08-25T09:44:12.048Z,0.65
2018-08-25T09:44:45.085Z,0.77
2018-08-25T09:45:18.898Z,0.60
2018-08-25T09:45:51.934Z,0.70
2018-08-25T09:46:25.293Z,0.90
2018-08-25T09:46:58.350Z,0.70
2018-08-25T09:47:31.348Z,0.70
2018-08-25T09:48:04.392Z,0.93
2018-08-25T09:48:37.435Z,0.80
2018-08-25T09:49:10.499Z,0.88
2018-08-25T09:49:43.531Z,0.88
2018-08-25T09:50:16.586Z,0.60
2018-08-25T09:50:50.367Z,0.88
2018-08-25T09:51:24.168Z,0.50
2018-08-25T09:51:57.968Z,0.70
2018-08-25T09:52:31.000Z,0.80
2018-08-25T09:53:04.155Z,0.82
2018-08-25T09:53:37.238Z,0.62
2018-08-25T09:54:10.988Z,1.17
2018-08-25T09:54:44.023Z,0.80
2018-08-25T09:55:17.084Z,0.73
2018-08-25T09:55:50.117Z,0.60
2018-08-25T09:56:23.160Z,0.47
2018-08-25T09:56:56.956Z,0.60
2018-08-25T09:57:30.768Z,0.50
2018-08-25T09:58:04.564Z,0.55
2018-08-25T09:58:38.381Z,0.75
2018-08-25T09:59:11.408Z,0.70
2018-08-25T09:59:44.444Z,0.70
2018-08-25T10:00:18.262Z,0.57
2018-08-25T10:00:51.302Z,0.60
2018-08-25T10:01:24.327Z,0.65
2018-08-25T10:01:58.128Z,0.50
2018-08-25T10:02:31.919Z,0.68
2018-08-25T10:03:05.000Z,0.70